createdAt,value
2023-04-10T00:01:28.129Z,15.93
2023-04-10T00:03:56.852Z,14.73
2023-04-10T00:06:25.074Z,19.48
2023-04-10T00:08:53.273Z,18.83
2023-04-10T00:11:21.179Z,24.55
2023-04-10T00:13:49.547Z,26.42
2023-04-10T00:16:17.621Z,16.27
2023-04-10T00:18:46.951Z,13.90
2023-04-10T00:21:14.979Z,13.07
2023-04-10T00:23:43.454Z,17.50
2023-04-10T00:26:11.516Z,17.67
2023-04-10T00:28:40.234Z,14.65
2023-04-10T00:31:08.408Z,13.05
2023-04-10T00:33:36.670Z,14.95
2023-04-10T00:36:04.881Z,19.23
2023-04-10T00:38:33.272Z,18.17
2023-04-10T00:41:01.266Z,23.45
2023-04-10T00:43:29.586Z,20.70
2023-04-10T00:45:57.611Z,15.75
2023-04-10T00:48:26.481Z,12.18
2023-04-10T00:50:55.809Z,12.50
2023-04-10T00:53:26.619Z,11.20
2023-04-10T00:55:57.385Z,11.25
2023-04-10T00:58:26.949Z,10.65
2023-04-10T01:00:58.413Z,10.43
2023-04-10T01:03:30.074Z,11.55
2023-04-10T01:06:11.573Z,10.93
2023-04-10T01:08:44.326Z,11.63
2023-04-10T01:11:31.731Z,10.40
2023-04-10T01:14:06.378Z,10.50
2023-04-10T01:16:44.169Z,11.00
2023-04-10T01:19:31.340Z,10.73
2023-04-10T01:22:00.890Z,11.82
2023-04-10T01:24:42.758Z,10.68
2023-04-10T01:27:27.279Z,11.93
2023-04-10T01:29:57.538Z,10.85
2023-04-10T01:32:28.661Z,12.38
2023-04-10T01:35:01.147Z,13.73
2023-04-10T01:37:31.862Z,16.83
2023-04-10T01:40:01.940Z,15.75
2023-04-10T01:42:32.946Z,14.75
2023-04-10T01:45:02.398Z,13.35
2023-04-10T01:47:30.791Z,12.50
2023-04-10T01:49:59.986Z,10.90
2023-04-10T01:52:28.904Z,10.75
2023-04-10T01:55:09.188Z,11.20
2023-04-10T01:57:49.116Z,11.27
2023-04-10T02:00:18.537Z,10.95
2023-04-10T02:02:47.723Z,12.07
2023-04-10T02:05:17.199Z,12.32
2023-04-10T02:07:51.845Z,10.82
2023-04-10T02:10:23.237Z,13.40
2023-04-10T02:12:54.069Z,13.75
2023-04-10T02:15:25.628Z,23.83
2023-04-10T02:17:55.826Z,22.65
2023-04-10T02:20:25.381Z,23.15
2023-04-10T02:22:54.390Z,17.48
2023-04-10T02:25:23.029Z,13.27
2023-04-10T02:27:51.231Z,13.18
2023-04-10T02:30:19.787Z,17.35
2023-04-10T02:32:48.746Z,15.85
2023-04-10T02:35:19.206Z,12.52
2023-04-10T02:37:47.569Z,11.80
2023-04-10T02:40:17.555Z,15.82
2023-04-10T02:42:53.502Z,11.70
2023-04-10T02:45:23.240Z,12.57
2023-04-10T02:47:51.928Z,11.98
2023-04-10T02:50:21.673Z,11.23
2023-04-10T02:52:50.114Z,10.68
2023-04-10T02:55:18.748Z,10.43
2023-04-10T02:57:47.251Z,11.23
2023-04-10T03:00:16.301Z,10.07
2023-04-10T03:03:03.322Z,11.98
2023-04-10T03:05:39.370Z,10.55
2023-04-10T03:08:08.085Z,14.93
2023-04-10T03:10:36.711Z,11.20
2023-04-10T03:13:04.974Z,13.68
2023-04-10T03:15:34.062Z,12.40
2023-04-10T03:18:02.448Z,11.20
2023-04-10T03:20:31.332Z,12.32
2023-04-10T03:22:59.901Z,11.93
2023-04-10T03:25:29.195Z,11.60
2023-04-10T03:27:57.563Z,12.15
2023-04-10T03:30:27.999Z,11.35
2023-04-10T03:32:56.500Z,11.50
2023-04-10T03:35:25.140Z,11.90
2023-04-10T03:37:53.421Z,12.20
2023-04-10T03:40:24.910Z,12.50
2023-04-10T03:42:53.497Z,10.85
2023-04-10T03:45:22.487Z,11.45
2023-04-10T03:47:51.165Z,11.90
2023-04-10T03:50:20.509Z,12.32
2023-04-10T03:52:54.637Z,13.73
2023-04-10T03:55:24.980Z,11.23
2023-04-10T03:57:53.792Z,13.00
2023-04-10T04:00:25.387Z,12.43
2023-04-10T04:03:05.086Z,24.30
2023-04-10T04:05:49.067Z,17.00
2023-04-10T04:08:29.276Z,13.40
2023-04-10T04:11:24.395Z,14.15
2023-04-10T04:13:59.986Z,13.55
2023-04-10T04:16:57.657Z,11.38
2023-04-10T04:19:35.862Z,10.55
2023-04-10T04:22:09.902Z,10.93
2023-04-10T04:24:56.634Z,31.75
2023-04-10T04:27:51.781Z,28.67
2023-04-10T04:30:33.006Z,15.15
2023-04-10T04:33:24.395Z,15.10
2023-04-10T04:36:21.927Z,12.95
2023-04-10T04:38:56.619Z,17.33
2023-04-10T04:41:32.636Z,17.52
2023-04-10T04:44:20.294Z,14.30
2023-04-10T04:47:02.939Z,12.25
2023-04-10T04:49:55.660Z,7.63
2023-04-10T04:52:29.963Z,12.98
2023-04-10T04:55:08.715Z,7.57
2023-04-10T04:57:58.854Z,8.15
2023-04-10T05:00:30.178Z,7.10
2023-04-10T05:03:30.929Z,7.18
2023-04-10T05:06:05.410Z,7.53
2023-04-10T05:08:53.065Z,6.47
2023-04-10T05:11:32.105Z,6.50
2023-04-10T05:14:18.694Z,6.28
2023-04-10T05:17:07.115Z,6.68
2023-04-10T05:19:59.223Z,6.35
2023-04-10T05:22:58.612Z,6.47
2023-04-10T05:25:40.934Z,6.45
2023-04-10T05:28:17.467Z,6.03
2023-04-10T05:30:58.010Z,6.20
2023-04-10T05:33:48.334Z,6.18
2023-04-10T05:36:37.561Z,5.65
2023-04-10T05:39:25.062Z,6.15
2023-04-10T05:42:18.658Z,5.40
2023-04-10T05:44:52.905Z,5.40
2023-04-10T05:47:53.019Z,5.75
2023-04-10T05:50:41.677Z,5.22
2023-04-10T05:53:32.689Z,5.93
2023-04-10T05:56:18.634Z,6.00
2023-04-10T05:59:03.884Z,5.47
2023-04-10T06:02:04.980Z,5.25
2023-04-10T06:04:33.297Z,5.05
2023-04-10T06:07:03.464Z,4.75
2023-04-10T06:09:33.651Z,5.20
2023-04-10T06:12:02.292Z,5.63
2023-04-10T06:14:31.678Z,5.47
2023-04-10T06:17:01.847Z,5.40
2023-04-10T06:19:30.411Z,4.88
2023-04-10T06:21:59.013Z,5.43
2023-04-10T06:24:27.239Z,5.30
2023-04-10T06:26:57.205Z,5.05
2023-04-10T06:29:26.052Z,4.93
2023-04-10T06:31:54.345Z,5.32
2023-04-10T06:34:22.769Z,5.40
2023-04-10T06:36:59.272Z,5.28
2023-04-10T06:39:27.812Z,4.57
2023-04-10T06:41:56.230Z,5.28
2023-04-10T06:44:42.284Z,5.13
2023-04-10T06:47:10.719Z,5.18
2023-04-10T06:49:38.643Z,4.90
2023-04-10T06:52:07.527Z,5.35
2023-04-10T06:54:35.546Z,4.93
2023-04-10T06:57:03.997Z,4.70
2023-04-10T06:59:34.003Z,4.90
2023-04-10T07:02:04.072Z,6.07
2023-04-10T07:04:32.502Z,5.57
2023-04-10T07:07:00.747Z,5.25
2023-04-10T07:09:29.812Z,5.50
2023-04-10T07:11:58.114Z,5.00
2023-04-10T07:14:26.379Z,5.15
2023-04-10T07:16:54.578Z,5.95
2023-04-10T07:19:22.487Z,4.75
2023-04-10T07:21:50.883Z,6.00
2023-04-10T07:24:19.042Z,6.38
2023-04-10T07:26:47.669Z,5.00
2023-04-10T07:29:16.039Z,4.63
2023-04-10T07:31:44.601Z,5.00
2023-04-10T07:34:13.153Z,5.63
2023-04-10T07:36:43.937Z,4.68
2023-04-10T07:39:13.551Z,7.78
2023-04-10T07:41:42.093Z,4.82
2023-04-10T07:44:10.690Z,6.35
2023-04-10T07:46:39.419Z,5.22
2023-04-10T07:49:08.698Z,5.22
2023-04-10T07:51:39.895Z,5.68
2023-04-10T07:54:07.938Z,5.80
2023-04-10T07:56:36.430Z,5.40
2023-04-10T07:59:06.150Z,13.55
2023-04-10T08:01:34.603Z,5.28
2023-04-10T08:04:05.611Z,5.60
2023-04-10T08:06:34.362Z,5.18
2023-04-10T08:09:02.604Z,5.50
2023-04-10T08:11:35.265Z,5.35
2023-04-10T08:14:05.567Z,6.35
2023-04-10T08:16:36.439Z,5.80
2023-04-10T08:19:04.529Z,5.05
2023-04-10T08:21:32.834Z,9.63
2023-04-10T08:24:04.974Z,5.85
2023-04-10T08:26:33.343Z,4.55
2023-04-10T08:29:01.456Z,5.30
2023-04-10T08:31:30.111Z,5.53
2023-04-10T08:33:59.182Z,6.22
2023-04-10T08:36:28.070Z,4.80
2023-04-10T08:38:56.117Z,4.55
2023-04-10T08:41:24.529Z,5.07
2023-04-10T08:43:52.594Z,7.00
2023-04-10T08:46:24.255Z,4.80
2023-04-10T08:49:05.944Z,4.78
2023-04-10T08:51:47.762Z,4.82
2023-04-10T08:54:24.641Z,5.10
2023-04-10T08:56:55.241Z,5.30
2023-04-10T08:59:23.446Z,7.10
2023-04-10T09:01:52.118Z,6.97
2023-04-10T09:04:21.031Z,5.18
2023-04-10T09:06:49.601Z,4.47
2023-04-10T09:09:17.866Z,5.20
2023-04-10T09:11:55.653Z,6.97
2023-04-10T09:14:27.265Z,6.75
2023-04-10T09:17:23.881Z,4.82
2023-04-10T09:19:56.228Z,7.88
2023-04-10T09:22:35.677Z,5.75
2023-04-10T09:25:05.160Z,5.78
2023-04-10T09:27:37.317Z,6.03
2023-04-10T09:30:06.557Z,11.52
2023-04-10T09:32:42.417Z,7.68
2023-04-10T09:35:15.456Z,8.45
2023-04-10T09:37:47.125Z,21.73
2023-04-10T09:40:24.794Z,15.48
2023-04-10T09:42:56.027Z,8.88
2023-04-10T09:45:24.147Z,8.30
2023-04-10T09:48:08.490Z,7.68
2023-04-10T09:50:40.159Z,8.95
2023-04-10T09:53:12.450Z,7.68
2023-04-10T09:55:41.790Z,5.15
2023-04-10T09:58:11.605Z,5.70
2023-04-10T10:00:41.154Z,5.43
2023-04-10T10:03:12.871Z,8.35
2023-04-10T10:05:44.586Z,8.60
2023-04-10T10:08:14.564Z,5.95
2023-04-10T10:10:53.516Z,4.90
2023-04-10T10:13:29.880Z,5.15
2023-04-10T10:16:23.568Z,4.88
2023-04-10T10:18:59.795Z,4.78
2023-04-10T10:21:30.223Z,4.22
2023-04-10T10:24:00.921Z,6.20
2023-04-10T10:26:30.473Z,5.40
2023-04-10T10:29:03.201Z,4.28
2023-04-10T10:31:34.072Z,4.53
2023-04-10T10:34:05.500Z,5.30
2023-04-10T10:36:34.383Z,3.40
2023-04-10T10:39:17.918Z,3.90
2023-04-10T10:42:06.728Z,4.40
2023-04-10T10:44:49.395Z,6.10
2023-04-10T10:47:24.760Z,6.22
2023-04-10T10:49:59.964Z,3.65
2023-04-10T10:52:44.589Z,3.80
2023-04-10T10:55:25.273Z,5.63
2023-04-10T10:57:57.969Z,5.53
2023-04-10T11:00:47.011Z,4.65
2023-04-10T11:03:15.243Z,5.05
2023-04-10T11:05:55.119Z,6.25
2023-04-10T11:08:48.187Z,4.05
2023-04-10T11:11:24.290Z,4.90
2023-04-10T11:13:58.051Z,4.20
2023-04-10T11:16:36.551Z,3.85
2023-04-10T11:19:14.050Z,8.98
2023-04-10T11:22:08.648Z,23.38
2023-04-10T11:25:10.674Z,13.63
2023-04-10T11:27:41.035Z,8.25
2023-04-10T11:30:32.294Z,7.93
2023-04-10T11:33:02.013Z,6.05
2023-04-10T11:35:31.912Z,3.38
2023-04-10T11:38:14.682Z,3.42
2023-04-10T11:41:05.650Z,4.70
2023-04-10T11:43:35.279Z,5.05
2023-04-10T11:46:05.840Z,4.70
2023-04-10T11:48:34.875Z,5.55
2023-04-10T11:51:13.592Z,4.20
2023-04-10T11:53:42.529Z,5.32
2023-04-10T11:56:21.861Z,3.63
2023-04-10T11:58:54.031Z,4.60
2023-04-10T12:01:23.186Z,4.18
2023-04-10T12:03:52.044Z,3.47
2023-04-10T12:06:20.620Z,4.97
2023-04-10T12:08:52.146Z,4.47
2023-04-10T12:11:29.766Z,4.57
2023-04-10T12:13:58.995Z,4.30
2023-04-10T12:16:27.494Z,4.45
2023-04-10T12:18:56.254Z,4.63
2023-04-10T12:21:24.514Z,4.03
2023-04-10T12:23:53.223Z,4.32
2023-04-10T12:26:21.655Z,3.95
2023-04-10T12:28:58.355Z,3.60
2023-04-10T12:31:31.310Z,3.70
2023-04-10T12:34:01.372Z,4.28
2023-04-10T12:36:30.961Z,4.75
2023-04-10T12:39:03.240Z,4.80
2023-04-10T12:41:33.642Z,6.90
2023-04-10T12:44:13.964Z,5.25
2023-04-10T12:46:43.459Z,4.30
2023-04-10T12:49:13.945Z,8.43
2023-04-10T12:51:49.476Z,12.80
2023-04-10T12:54:37.432Z,17.45
2023-04-10T12:57:06.564Z,7.75
2023-04-10T12:59:35.055Z,10.80
2023-04-10T13:02:03.035Z,13.30
2023-04-10T13:04:32.485Z,7.72
2023-04-10T13:07:01.255Z,11.40
2023-04-10T13:09:29.467Z,10.85
2023-04-10T13:11:57.731Z,5.95
2023-04-10T13:14:26.181Z,10.93
2023-04-10T13:16:54.283Z,5.30
2023-04-10T13:19:22.474Z,6.55
2023-04-10T13:21:51.626Z,6.10
2023-04-10T13:24:19.946Z,6.20
2023-04-10T13:26:48.044Z,5.43
2023-04-10T13:29:16.471Z,4.40
2023-04-10T13:31:44.650Z,6.70
2023-04-10T13:34:13.013Z,5.03
2023-04-10T13:36:41.147Z,22.55
2023-04-10T13:39:09.322Z,7.93
2023-04-10T13:41:37.765Z,7.05
2023-04-10T13:44:06.250Z,6.90
2023-04-10T13:46:34.150Z,7.60
2023-04-10T13:49:02.494Z,8.73
2023-04-10T13:51:31.617Z,7.78
2023-04-10T13:54:00.037Z,5.80
2023-04-10T13:56:28.181Z,6.13
2023-04-10T13:58:56.919Z,4.38
2023-04-10T14:01:25.302Z,6.63
2023-04-10T14:03:53.644Z,8.90
2023-04-10T14:06:21.717Z,5.88
2023-04-10T14:08:49.981Z,5.32
2023-04-10T14:11:17.977Z,8.27
2023-04-10T14:13:46.291Z,5.13
2023-04-10T14:16:14.740Z,5.75
2023-04-10T14:18:43.000Z,4.35
2023-04-10T14:21:11.062Z,3.90
2023-04-10T14:23:39.310Z,8.35
2023-04-10T14:26:07.619Z,6.80
2023-04-10T14:28:36.203Z,5.20
2023-04-10T14:31:05.080Z,9.68
2023-04-10T14:33:33.698Z,4.95
2023-04-10T14:36:01.890Z,6.88
2023-04-10T14:38:30.636Z,4.50
2023-04-10T14:40:58.726Z,5.00
2023-04-10T14:43:27.344Z,5.28
2023-04-10T14:45:55.475Z,6.38
2023-04-10T14:48:23.887Z,10.65
2023-04-10T14:50:52.238Z,4.55
2023-04-10T14:53:22.331Z,4.72
2023-04-10T14:55:50.598Z,4.97
2023-04-10T14:58:18.895Z,4.80
2023-04-10T15:00:47.230Z,4.00
2023-04-10T15:03:16.084Z,4.05
2023-04-10T15:05:44.828Z,4.55
2023-04-10T15:08:13.261Z,4.00
2023-04-10T15:10:42.401Z,4.20
2023-04-10T15:13:10.743Z,4.55
2023-04-10T15:15:38.897Z,6.43
2023-04-10T15:18:07.311Z,5.10
2023-04-10T15:20:35.297Z,4.43
2023-04-10T15:23:03.524Z,5.70
2023-04-10T15:25:33.964Z,5.13
2023-04-10T15:28:02.676Z,4.78
2023-04-10T15:30:31.345Z,4.47
2023-04-10T15:32:59.964Z,6.10
2023-04-10T15:35:30.370Z,6.00
2023-04-10T15:37:58.754Z,7.70
2023-04-10T15:40:28.524Z,7.93
2023-04-10T15:42:57.123Z,5.70
2023-04-10T15:45:25.146Z,5.18
2023-04-10T15:47:53.489Z,4.10
2023-04-10T15:50:23.826Z,4.38
2023-04-10T15:52:52.133Z,4.93
2023-04-10T15:55:20.144Z,4.38
2023-04-10T15:57:48.415Z,4.80
2023-04-10T16:00:17.111Z,4.00
2023-04-10T16:02:46.607Z,4.38
2023-04-10T16:05:14.919Z,3.60
2023-04-10T16:07:43.796Z,3.85
2023-04-10T16:10:12.002Z,3.72
2023-04-10T16:12:41.672Z,2.92
2023-04-10T16:15:10.010Z,2.90
2023-04-10T16:17:38.231Z,3.05
2023-04-10T16:20:09.512Z,5.32
2023-04-10T16:22:37.846Z,4.72
2023-04-10T16:25:06.447Z,5.00
2023-04-10T16:27:34.826Z,4.00
2023-04-10T16:30:02.912Z,5.47
2023-04-10T16:32:31.850Z,4.22
2023-04-10T16:34:59.915Z,6.30
2023-04-10T16:37:31.377Z,5.78
2023-04-10T16:40:00.355Z,7.05
2023-04-10T16:42:29.066Z,8.73
2023-04-10T16:44:58.712Z,6.82
2023-04-10T16:47:27.580Z,7.85
2023-04-10T16:49:55.915Z,72.35
2023-04-10T16:52:24.254Z,56.90
2023-04-10T16:54:52.369Z,53.67
2023-04-10T16:57:21.682Z,76.93
2023-04-10T16:59:49.820Z,154.55
2023-04-10T17:02:18.175Z,112.03
2023-04-10T17:04:46.374Z,71.60
2023-04-10T17:07:14.835Z,53.75
2023-04-10T17:09:42.781Z,35.83
2023-04-10T17:12:11.301Z,23.05
2023-04-10T17:14:42.377Z,15.45
2023-04-10T17:17:10.634Z,17.15
2023-04-10T17:19:38.756Z,14.10
2023-04-10T17:22:16.061Z,10.82
2023-04-10T17:24:44.544Z,23.58
2023-04-10T17:27:14.471Z,23.58
2023-04-10T17:29:42.688Z,23.15
2023-04-10T17:32:11.134Z,33.38
2023-04-10T17:34:39.146Z,44.70
2023-04-10T17:37:07.320Z,57.67
2023-04-10T17:39:35.324Z,50.30
2023-04-10T17:42:03.848Z,57.25
2023-04-10T17:44:32.480Z,82.10
2023-04-10T17:47:01.486Z,99.00
2023-04-10T17:49:30.538Z,97.32
2023-04-10T17:51:58.889Z,74.32
2023-04-10T17:54:26.938Z,66.57
2023-04-10T17:56:55.298Z,81.40
2023-04-10T17:59:23.649Z,85.82
2023-04-10T18:01:51.910Z,83.88
2023-04-10T18:04:20.106Z,80.55
2023-04-10T18:06:48.578Z,78.32
2023-04-10T18:09:17.363Z,85.65
2023-04-10T18:11:47.963Z,114.45
2023-04-10T18:14:15.938Z,96.60
2023-04-10T18:16:44.388Z,90.80
2023-04-10T18:19:12.343Z,92.72
2023-04-10T18:21:43.305Z,104.53
2023-04-10T18:24:11.418Z,117.43
2023-04-10T18:26:40.604Z,109.53
2023-04-10T18:29:08.663Z,104.50
2023-04-10T18:31:37.056Z,96.85
2023-04-10T18:34:08.343Z,84.68
2023-04-10T18:36:37.066Z,83.82
2023-04-10T18:39:05.206Z,101.32
2023-04-10T18:41:33.578Z,121.78
2023-04-10T18:44:05.547Z,103.45
2023-04-10T18:46:34.720Z,101.78
2023-04-10T18:49:03.411Z,102.65
2023-04-10T18:51:34.972Z,104.60
2023-04-10T18:54:04.160Z,128.25
2023-04-10T18:56:32.656Z,147.00
2023-04-10T18:59:00.656Z,135.30
2023-04-10T19:01:29.138Z,118.22
2023-04-10T19:03:57.467Z,139.15
2023-04-10T19:06:27.928Z,124.45
2023-04-10T19:08:55.967Z,121.45
2023-04-10T19:11:24.329Z,104.40
2023-04-10T19:13:52.791Z,95.53
2023-04-10T19:16:21.597Z,109.57
2023-04-10T19:18:49.892Z,110.90
2023-04-10T19:21:18.514Z,91.10
2023-04-10T19:23:46.644Z,72.65
2023-04-10T19:26:14.990Z,91.07
2023-04-10T19:28:43.044Z,89.35
2023-04-10T19:31:11.461Z,86.47
2023-04-10T19:33:39.790Z,93.15
2023-04-10T19:36:08.789Z,77.68
2023-04-10T19:38:36.898Z,60.50
2023-04-10T19:41:14.259Z,55.42
2023-04-10T19:43:42.312Z,50.17
2023-04-10T19:46:20.830Z,51.63
2023-04-10T19:48:49.280Z,49.25
2023-04-10T19:51:17.833Z,45.72
2023-04-10T19:53:45.845Z,47.75
2023-04-10T19:56:16.824Z,59.53
2023-04-10T19:58:47.031Z,61.47
2023-04-10T20:01:15.755Z,66.28
2023-04-10T20:03:44.058Z,64.55
2023-04-10T20:06:12.542Z,69.88
2023-04-10T20:08:40.943Z,72.53
2023-04-10T20:11:09.798Z,71.10
2023-04-10T20:13:39.423Z,55.70
2023-04-10T20:16:08.365Z,59.80
2023-04-10T20:18:36.767Z,68.13
2023-04-10T20:21:07.686Z,68.63
2023-04-10T20:23:36.993Z,57.50
2023-04-10T20:26:05.413Z,59.05
2023-04-10T20:28:33.456Z,53.42
2023-04-10T20:31:01.910Z,58.00
2023-04-10T20:33:29.950Z,53.38
2023-04-10T20:35:59.949Z,55.20
2023-04-10T20:38:28.038Z,58.30
2023-04-10T20:40:56.310Z,60.85
2023-04-10T20:43:24.310Z,80.97
2023-04-10T20:45:52.739Z,92.10
2023-04-10T20:48:20.833Z,75.80
2023-04-10T20:50:49.538Z,73.28
2023-04-10T20:53:17.579Z,78.53
2023-04-10T20:55:46.321Z,78.60
2023-04-10T20:58:14.249Z,82.00
2023-04-10T21:00:42.598Z,77.82
2023-04-10T21:03:10.915Z,77.40
2023-04-10T21:05:42.820Z,77.63
2023-04-10T21:08:12.675Z,72.90
2023-04-10T21:10:44.426Z,68.63
2023-04-10T21:13:14.040Z,63.65
2023-04-10T21:15:43.135Z,74.15
2023-04-10T21:18:11.093Z,80.10
2023-04-10T21:20:39.345Z,64.35
2023-04-10T21:23:07.423Z,56.10
2023-04-10T21:25:36.386Z,57.45
2023-04-10T21:28:04.338Z,57.17
2023-04-10T21:30:32.719Z,55.67
2023-04-10T21:33:00.789Z,52.85
2023-04-10T21:35:28.963Z,52.40
2023-04-10T21:38:01.363Z,53.20
2023-04-10T21:40:34.573Z,51.30
2023-04-10T21:43:03.703Z,50.88
2023-04-10T21:45:34.493Z,46.13
2023-04-10T21:48:02.810Z,42.20
2023-04-10T21:50:31.100Z,41.25
2023-04-10T21:53:00.199Z,38.13
2023-04-10T21:55:28.619Z,37.72
2023-04-10T21:57:56.980Z,34.80
2023-04-10T22:00:25.419Z,43.08
2023-04-10T22:02:53.589Z,33.45
2023-04-10T22:05:24.298Z,30.60
2023-04-10T22:07:52.657Z,30.65
2023-04-10T22:10:21.227Z,32.92
2023-04-10T22:12:49.587Z,28.25
2023-04-10T22:15:18.871Z,27.05
2023-04-10T22:17:46.859Z,27.85
2023-04-10T22:20:15.716Z,26.20
2023-04-10T22:22:43.614Z,26.73
2023-04-10T22:25:11.850Z,26.08
2023-04-10T22:27:40.220Z,43.35
2023-04-10T22:30:09.865Z,33.33
2023-04-10T22:32:37.995Z,32.30
2023-04-10T22:35:07.263Z,30.77
2023-04-10T22:37:35.223Z,29.67
2023-04-10T22:40:04.793Z,30.70
2023-04-10T22:42:32.824Z,29.60
2023-04-10T22:45:01.214Z,26.00
2023-04-10T22:47:29.239Z,28.02
2023-04-10T22:49:57.438Z,28.45
2023-04-10T22:52:25.471Z,25.52
2023-04-10T22:54:53.893Z,33.30
2023-04-10T22:57:21.723Z,35.67
2023-04-10T22:59:50.026Z,33.97
2023-04-10T23:02:18.269Z,38.65
2023-04-10T23:04:46.861Z,59.22
2023-04-10T23:07:14.939Z,37.55
2023-04-10T23:09:43.148Z,31.13
2023-04-10T23:12:11.272Z,23.70
2023-04-10T23:14:39.555Z,31.65
2023-04-10T23:17:07.843Z,30.33
2023-04-10T23:19:36.109Z,28.30
2023-04-10T23:22:04.160Z,25.13
2023-04-10T23:24:32.549Z,33.25
2023-04-10T23:27:00.597Z,38.00
2023-04-10T23:29:28.950Z,29.48
2023-04-10T23:31:56.922Z,32.03
2023-04-10T23:34:26.836Z,43.63
2023-04-10T23:36:54.877Z,33.00
2023-04-10T23:39:23.216Z,34.90
2023-04-10T23:41:51.553Z,28.25
2023-04-10T23:44:19.881Z,24.38
2023-04-10T23:46:49.496Z,30.73
2023-04-10T23:49:18.279Z,31.95
2023-04-10T23:51:46.453Z,25.75
2023-04-10T23:54:14.779Z,26.42
2023-04-10T23:56:42.993Z,27.10
2023-04-10T23:59:11.174Z,13.82
